sensor_id;sensor_type;location;lat;lon;timestamp;P1;durP1;ratioP1;P2;durP2;ratioP2
29712;SDS011;16623;53.632;10.016;2022-12-18T00:01:58;24.05;;;13.40;;
29712;SDS011;16623;53.632;10.016;2022-12-18T00:04:24;23.20;;;13.35;;
29712;SDS011;16623;53.632;10.016;2022-12-18T00:06:51;26.05;;;14.35;;
29712;SDS011;16623;53.632;10.016;2022-12-18T00:09:17;28.63;;;14.70;;
29712;SDS011;16623;53.632;10.016;2022-12-18T00:11:43;28.08;;;15.75;;
29712;SDS011;16623;53.632;10.016;2022-12-18T00:14:09;30.55;;;15.20;;
29712;SDS011;16623;53.632;10.016;2022-12-18T00:16:36;25.35;;;13.75;;
29712;SDS011;16623;53.632;10.016;2022-12-18T00:19:03;25.50;;;14.02;;
29712;SDS011;16623;53.632;10.016;2022-12-18T00:21:29;23.30;;;14.43;;
29712;SDS011;16623;53.632;10.016;2022-12-18T00:23:56;26.48;;;13.98;;
29712;SDS011;16623;53.632;10.016;2022-12-18T00:26:26;33.97;;;14.05;;
29712;SDS011;16623;53.632;10.016;2022-12-18T00:29:04;29.25;;;14.52;;
29712;SDS011;16623;53.632;10.016;2022-12-18T00:31:32;29.40;;;15.32;;
29712;SDS011;16623;53.632;10.016;2022-12-18T00:33:58;31.27;;;14.95;;
29712;SDS011;16623;53.632;10.016;2022-12-18T00:36:25;24.80;;;13.93;;
29712;SDS011;16623;53.632;10.016;2022-12-18T00:38:56;37.97;;;15.35;;
29712;SDS011;16623;53.632;10.016;2022-12-18T00:41:22;29.48;;;15.48;;
29712;SDS011;16623;53.632;10.016;2022-12-18T00:44:08;25.58;;;12.73;;
29712;SDS011;16623;53.632;10.016;2022-12-18T00:46:37;30.10;;;13.70;;
29712;SDS011;16623;53.632;10.016;2022-12-18T00:49:04;26.13;;;13.65;;
29712;SDS011;16623;53.632;10.016;2022-12-18T00:51:30;28.95;;;13.90;;
29712;SDS011;16623;53.632;10.016;2022-12-18T00:53:56;28.15;;;14.02;;
29712;SDS011;16623;53.632;10.016;2022-12-18T00:56:22;30.60;;;15.45;;
29712;SDS011;16623;53.632;10.016;2022-12-18T00:58:48;27.33;;;14.23;;
29712;SDS011;16623;53.632;10.016;2022-12-18T01:01:14;23.25;;;13.25;;
29712;SDS011;16623;53.632;10.016;2022-12-18T01:03:40;27.48;;;15.18;;
29712;SDS011;16623;53.632;10.016;2022-12-18T01:06:06;28.73;;;13.75;;
29712;SDS011;16623;53.632;10.016;2022-12-18T01:08:33;29.05;;;14.43;;
29712;SDS011;16623;53.632;10.016;2022-12-18T01:10:59;31.65;;;14.63;;
29712;SDS011;16623;53.632;10.016;2022-12-18T01:13:24;23.58;;;14.02;;
29712;SDS011;16623;53.632;10.016;2022-12-18T01:15:50;30.80;;;14.63;;
29712;SDS011;16623;53.632;10.016;2022-12-18T01:18:16;28.80;;;14.90;;
29712;SDS011;16623;53.632;10.016;2022-12-18T01:20:42;25.73;;;15.18;;
29712;SDS011;16623;53.632;10.016;2022-12-18T01:23:07;26.35;;;13.95;;
29712;SDS011;16623;53.632;10.016;2022-12-18T01:25:35;25.30;;;13.93;;
29712;SDS011;16623;53.632;10.016;2022-12-18T01:28:01;34.97;;;14.20;;
29712;SDS011;16623;53.632;10.016;2022-12-18T01:30:27;26.55;;;13.60;;
29712;SDS011;16623;53.632;10.016;2022-12-18T01:32:52;28.67;;;14.20;;
29712;SDS011;16623;53.632;10.016;2022-12-18T01:35:18;22.65;;;13.32;;
29712;SDS011;16623;53.632;10.016;2022-12-18T01:37:43;29.13;;;13.88;;
29712;SDS011;16623;53.632;10.016;2022-12-18T01:40:09;27.48;;;14.55;;
29712;SDS011;16623;53.632;10.016;2022-12-18T01:42:35;38.80;;;14.02;;
29712;SDS011;16623;53.632;10.016;2022-12-18T01:47:40;30.08;;;13.60;;
29712;SDS011;16623;53.632;10.016;2022-12-18T01:50:16;21.98;;;12.23;;
29712;SDS011;16623;53.632;10.016;2022-12-18T01:52:47;21.63;;;11.38;;
29712;SDS011;16623;53.632;10.016;2022-12-18T01:55:17;25.77;;;12.85;;
29712;SDS011;16623;53.632;10.016;2022-12-18T01:57:45;27.30;;;12.73;;
29712;SDS011;16623;53.632;10.016;2022-12-18T02:00:13;31.75;;;14.13;;
29712;SDS011;16623;53.632;10.016;2022-12-18T02:02:41;24.45;;;12.15;;
29712;SDS011;16623;53.632;10.016;2022-12-18T02:05:09;29.65;;;14.10;;
29712;SDS011;16623;53.632;10.016;2022-12-18T02:13:26;23.90;;;12.75;;
29712;SDS011;16623;53.632;10.016;2022-12-18T02:16:02;23.85;;;13.18;;
29712;SDS011;16623;53.632;10.016;2022-12-18T02:18:38;23.48;;;11.93;;
29712;SDS011;16623;53.632;10.016;2022-12-18T02:24:15;23.27;;;12.07;;
29712;SDS011;16623;53.632;10.016;2022-12-18T02:26:50;21.95;;;12.30;;
29712;SDS011;16623;53.632;10.016;2022-12-18T02:29:28;27.90;;;13.48;;
29712;SDS011;16623;53.632;10.016;2022-12-18T02:32:13;24.40;;;12.30;;
29712;SDS011;16623;53.632;10.016;2022-12-18T02:34:42;23.13;;;12.63;;
29712;SDS011;16623;53.632;10.016;2022-12-18T02:37:11;22.25;;;12.18;;
29712;SDS011;16623;53.632;10.016;2022-12-18T02:39:40;24.65;;;12.93;;
29712;SDS011;16623;53.632;10.016;2022-12-18T02:42:08;24.65;;;12.57;;
29712;SDS011;16623;53.632;10.016;2022-12-18T02:44:44;23.02;;;12.45;;
29712;SDS011;16623;53.632;10.016;2022-12-18T02:47:14;27.10;;;12.05;;
29712;SDS011;16623;53.632;10.016;2022-12-18T02:52:33;21.83;;;11.80;;
29712;SDS011;16623;53.632;10.016;2022-12-18T02:55:18;27.38;;;13.07;;
29712;SDS011;16623;53.632;10.016;2022-12-18T02:58:00;23.88;;;12.35;;
29712;SDS011;16623;53.632;10.016;2022-12-18T03:00:36;25.63;;;12.55;;
29712;SDS011;16623;53.632;10.016;2022-12-18T03:03:14;22.52;;;12.07;;
29712;SDS011;16623;53.632;10.016;2022-12-18T03:05:52;23.13;;;12.55;;
29712;SDS011;16623;53.632;10.016;2022-12-18T03:08:22;24.85;;;11.82;;
29712;SDS011;16623;53.632;10.016;2022-12-18T03:10:57;31.15;;;11.57;;
29712;SDS011;16623;53.632;10.016;2022-12-18T03:13:37;26.90;;;12.57;;
29712;SDS011;16623;53.632;10.016;2022-12-18T03:16:22;22.10;;;11.43;;
29712;SDS011;16623;53.632;10.016;2022-12-18T03:18:55;22.70;;;11.65;;
29712;SDS011;16623;53.632;10.016;2022-12-18T03:21:26;22.67;;;11.23;;
29712;SDS011;16623;53.632;10.016;2022-12-18T03:23:56;22.15;;;11.70;;
29712;SDS011;16623;53.632;10.016;2022-12-18T03:26:23;20.65;;;12.05;;
29712;SDS011;16623;53.632;10.016;2022-12-18T03:28:52;21.90;;;11.23;;
29712;SDS011;16623;53.632;10.016;2022-12-18T03:31:22;22.33;;;12.68;;
29712;SDS011;16623;53.632;10.016;2022-12-18T03:33:52;23.10;;;10.13;;
29712;SDS011;16623;53.632;10.016;2022-12-18T03:36:25;27.75;;;11.85;;
29712;SDS011;16623;53.632;10.016;2022-12-18T03:38:51;23.85;;;10.65;;
29712;SDS011;16623;53.632;10.016;2022-12-18T03:44:11;16.00;;;10.38;;
29712;SDS011;16623;53.632;10.016;2022-12-18T03:49:40;24.95;;;12.45;;
29712;SDS011;16623;53.632;10.016;2022-12-18T03:52:33;23.05;;;11.18;;
29712;SDS011;16623;53.632;10.016;2022-12-18T03:55:08;20.38;;;10.75;;
29712;SDS011;16623;53.632;10.016;2022-12-18T03:57:34;24.20;;;11.25;;
29712;SDS011;16623;53.632;10.016;2022-12-18T04:00:06;22.77;;;11.70;;
29712;SDS011;16623;53.632;10.016;2022-12-18T04:02:40;20.00;;;10.93;;
29712;SDS011;16623;53.632;10.016;2022-12-18T04:05:11;18.88;;;10.40;;
29712;SDS011;16623;53.632;10.016;2022-12-18T04:07:37;19.42;;;10.18;;
29712;SDS011;16623;53.632;10.016;2022-12-18T04:10:05;20.25;;;11.15;;
29712;SDS011;16623;53.632;10.016;2022-12-18T04:12:32;21.75;;;11.02;;
29712;SDS011;16623;53.632;10.016;2022-12-18T04:14:58;18.92;;;9.57;;
29712;SDS011;16623;53.632;10.016;2022-12-18T04:17:23;18.92;;;10.05;;
29712;SDS011;16623;53.632;10.016;2022-12-18T04:19:49;22.40;;;10.27;;
29712;SDS011;16623;53.632;10.016;2022-12-18T04:22:15;18.60;;;9.75;;
29712;SDS011;16623;53.632;10.016;2022-12-18T04:24:40;21.40;;;10.68;;
29712;SDS011;16623;53.632;10.016;2022-12-18T04:27:06;22.15;;;10.43;;
29712;SDS011;16623;53.632;10.016;2022-12-18T04:29:32;18.33;;;11.10;;
29712;SDS011;16623;53.632;10.016;2022-12-18T04:31:57;19.70;;;11.32;;
29712;SDS011;16623;53.632;10.016;2022-12-18T04:34:23;24.13;;;11.05;;
29712;SDS011;16623;53.632;10.016;2022-12-18T04:36:48;26.02;;;11.00;;
29712;SDS011;16623;53.632;10.016;2022-12-18T04:39:14;18.67;;;10.68;;
29712;SDS011;16623;53.632;10.016;2022-12-18T04:41:42;21.27;;;10.90;;
29712;SDS011;16623;53.632;10.016;2022-12-18T04:44:08;29.33;;;12.68;;
29712;SDS011;16623;53.632;10.016;2022-12-18T04:46:33;23.13;;;11.15;;
29712;SDS011;16623;53.632;10.016;2022-12-18T04:48:59;18.52;;;10.18;;
29712;SDS011;16623;53.632;10.016;2022-12-18T04:51:25;18.25;;;10.48;;
29712;SDS011;16623;53.632;10.016;2022-12-18T04:53:50;20.25;;;9.65;;
29712;SDS011;16623;53.632;10.016;2022-12-18T04:56:16;19.90;;;10.85;;
29712;SDS011;16623;53.632;10.016;2022-12-18T04:58:42;18.13;;;10.65;;
29712;SDS011;16623;53.632;10.016;2022-12-18T05:01:09;27.23;;;11.82;;
29712;SDS011;16623;53.632;10.016;2022-12-18T05:03:35;24.23;;;11.00;;
29712;SDS011;16623;53.632;10.016;2022-12-18T05:06:02;22.00;;;10.70;;
29712;SDS011;16623;53.632;10.016;2022-12-18T05:08:28;19.27;;;10.80;;
29712;SDS011;16623;53.632;10.016;2022-12-18T05:11:04;19.08;;;10.45;;
29712;SDS011;16623;53.632;10.016;2022-12-18T05:13:32;20.80;;;10.48;;
29712;SDS011;16623;53.632;10.016;2022-12-18T05:15:58;18.90;;;10.90;;
29712;SDS011;16623;53.632;10.016;2022-12-18T05:18:24;21.67;;;11.55;;
29712;SDS011;16623;53.632;10.016;2022-12-18T05:20:50;19.50;;;10.52;;
29712;SDS011;16623;53.632;10.016;2022-12-18T05:23:17;20.63;;;10.38;;
29712;SDS011;16623;53.632;10.016;2022-12-18T05:25:46;17.27;;;10.15;;
29712;SDS011;16623;53.632;10.016;2022-12-18T05:28:21;25.75;;;10.65;;
29712;SDS011;16623;53.632;10.016;2022-12-18T05:30:51;19.80;;;10.68;;
29712;SDS011;16623;53.632;10.016;2022-12-18T05:33:20;20.95;;;9.85;;
29712;SDS011;16623;53.632;10.016;2022-12-18T05:35:50;19.45;;;10.65;;
29712;SDS011;16623;53.632;10.016;2022-12-18T05:38:17;17.38;;;10.45;;
29712;SDS011;16623;53.632;10.016;2022-12-18T05:40:43;20.20;;;10.77;;
29712;SDS011;16623;53.632;10.016;2022-12-18T05:43:09;20.63;;;10.60;;
29712;SDS011;16623;53.632;10.016;2022-12-18T05:45:38;20.25;;;9.80;;
29712;SDS011;16623;53.632;10.016;2022-12-18T05:48:03;23.13;;;12.00;;
29712;SDS011;16623;53.632;10.016;2022-12-18T05:50:30;20.33;;;10.38;;
29712;SDS011;16623;53.632;10.016;2022-12-18T05:52:55;19.83;;;11.00;;
29712;SDS011;16623;53.632;10.016;2022-12-18T05:55:20;19.45;;;10.38;;
29712;SDS011;16623;53.632;10.016;2022-12-18T05:57:46;22.23;;;11.15;;
29712;SDS011;16623;53.632;10.016;2022-12-18T06:00:12;17.92;;;9.93;;
29712;SDS011;16623;53.632;10.016;2022-12-18T06:02:38;18.63;;;10.13;;
29712;SDS011;16623;53.632;10.016;2022-12-18T06:05:04;16.48;;;9.77;;
29712;SDS011;16623;53.632;10.016;2022-12-18T06:07:30;21.90;;;10.82;;
29712;SDS011;16623;53.632;10.016;2022-12-18T06:09:55;18.13;;;10.68;;
29712;SDS011;16623;53.632;10.016;2022-12-18T06:12:21;19.08;;;10.10;;
29712;SDS011;16623;53.632;10.016;2022-12-18T06:14:46;20.33;;;11.50;;
29712;SDS011;16623;53.632;10.016;2022-12-18T06:17:12;24.13;;;10.50;;
29712;SDS011;16623;53.632;10.016;2022-12-18T06:19:37;18.35;;;10.23;;
29712;SDS011;16623;53.632;10.016;2022-12-18T06:22:03;17.50;;;10.13;;
29712;SDS011;16623;53.632;10.016;2022-12-18T06:24:29;20.67;;;11.77;;
29712;SDS011;16623;53.632;10.016;2022-12-18T06:26:55;18.83;;;10.82;;
29712;SDS011;16623;53.632;10.016;2022-12-18T06:29:20;23.27;;;10.73;;
29712;SDS011;16623;53.632;10.016;2022-12-18T06:31:52;27.10;;;11.70;;
29712;SDS011;16623;53.632;10.016;2022-12-18T06:34:17;22.23;;;11.10;;
29712;SDS011;16623;53.632;10.016;2022-12-18T06:36:43;21.13;;;10.82;;
29712;SDS011;16623;53.632;10.016;2022-12-18T06:39:08;20.38;;;10.70;;
29712;SDS011;16623;53.632;10.016;2022-12-18T06:41:34;22.92;;;11.30;;
29712;SDS011;16623;53.632;10.016;2022-12-18T06:43:59;24.27;;;11.32;;
29712;SDS011;16623;53.632;10.016;2022-12-18T06:46:24;20.60;;;12.40;;
29712;SDS011;16623;53.632;10.016;2022-12-18T06:48:50;17.33;;;9.93;;
29712;SDS011;16623;53.632;10.016;2022-12-18T06:51:17;19.58;;;10.07;;
29712;SDS011;16623;53.632;10.016;2022-12-18T06:53:43;19.98;;;11.50;;
29712;SDS011;16623;53.632;10.016;2022-12-18T06:56:09;18.15;;;11.15;;
29712;SDS011;16623;53.632;10.016;2022-12-18T06:58:34;21.23;;;10.98;;
29712;SDS011;16623;53.632;10.016;2022-12-18T07:01:00;23.70;;;12.65;;
29712;SDS011;16623;53.632;10.016;2022-12-18T07:03:27;20.17;;;11.68;;
29712;SDS011;16623;53.632;10.016;2022-12-18T07:05:52;25.83;;;11.80;;
29712;SDS011;16623;53.632;10.016;2022-12-18T07:08:18;26.30;;;12.75;;
29712;SDS011;16623;53.632;10.016;2022-12-18T07:10:44;25.70;;;12.40;;
29712;SDS011;16623;53.632;10.016;2022-12-18T07:13:10;20.92;;;11.82;;
29712;SDS011;16623;53.632;10.016;2022-12-18T07:15:35;15.73;;;8.82;;
29712;SDS011;16623;53.632;10.016;2022-12-18T07:18:01;28.73;;;11.73;;
29712;SDS011;16623;53.632;10.016;2022-12-18T07:20:27;22.38;;;12.57;;
29712;SDS011;16623;53.632;10.016;2022-12-18T07:22:52;27.60;;;13.85;;
29712;SDS011;16623;53.632;10.016;2022-12-18T07:25:18;22.13;;;11.50;;
29712;SDS011;16623;53.632;10.016;2022-12-18T07:27:44;25.27;;;12.52;;
29712;SDS011;16623;53.632;10.016;2022-12-18T07:30:09;24.27;;;11.65;;
29712;SDS011;16623;53.632;10.016;2022-12-18T07:32:35;22.85;;;11.32;;
29712;SDS011;16623;53.632;10.016;2022-12-18T07:35:01;26.30;;;12.63;;
29712;SDS011;16623;53.632;10.016;2022-12-18T07:37:27;25.50;;;11.85;;
29712;SDS011;16623;53.632;10.016;2022-12-18T07:39:52;28.25;;;11.95;;
29712;SDS011;16623;53.632;10.016;2022-12-18T07:42:18;26.20;;;12.02;;
29712;SDS011;16623;53.632;10.016;2022-12-18T07:44:55;24.17;;;11.85;;
29712;SDS011;16623;53.632;10.016;2022-12-18T07:47:21;18.27;;;11.10;;
29712;SDS011;16623;53.632;10.016;2022-12-18T07:49:47;20.83;;;11.93;;
29712;SDS011;16623;53.632;10.016;2022-12-18T07:52:12;22.35;;;12.10;;
29712;SDS011;16623;53.632;10.016;2022-12-18T07:54:38;23.73;;;11.88;;
29712;SDS011;16623;53.632;10.016;2022-12-18T07:57:04;27.27;;;12.52;;
29712;SDS011;16623;53.632;10.016;2022-12-18T07:59:29;25.23;;;12.43;;
29712;SDS011;16623;53.632;10.016;2022-12-18T08:01:55;26.33;;;12.45;;
29712;SDS011;16623;53.632;10.016;2022-12-18T08:04:21;26.88;;;11.07;;
29712;SDS011;16623;53.632;10.016;2022-12-18T08:06:46;26.02;;;12.90;;
29712;SDS011;16623;53.632;10.016;2022-12-18T08:09:12;24.75;;;12.85;;
29712;SDS011;16623;53.632;10.016;2022-12-18T08:11:37;20.15;;;11.25;;
29712;SDS011;16623;53.632;10.016;2022-12-18T08:14:03;25.35;;;12.88;;
29712;SDS011;16623;53.632;10.016;2022-12-18T08:16:28;18.40;;;11.10;;
29712;SDS011;16623;53.632;10.016;2022-12-18T08:18:55;25.08;;;11.80;;
29712;SDS011;16623;53.632;10.016;2022-12-18T08:21:25;24.05;;;12.43;;
29712;SDS011;16623;53.632;10.016;2022-12-18T08:23:56;28.10;;;13.18;;
29712;SDS011;16623;53.632;10.016;2022-12-18T08:26:23;27.73;;;11.82;;
29712;SDS011;16623;53.632;10.016;2022-12-18T08:28:50;22.52;;;12.82;;
29712;SDS011;16623;53.632;10.016;2022-12-18T08:31:16;22.60;;;13.07;;
29712;SDS011;16623;53.632;10.016;2022-12-18T08:33:42;25.70;;;12.98;;
29712;SDS011;16623;53.632;10.016;2022-12-18T08:36:08;29.83;;;13.43;;
29712;SDS011;16623;53.632;10.016;2022-12-18T08:38:35;29.38;;;11.32;;
29712;SDS011;16623;53.632;10.016;2022-12-18T08:41:01;26.00;;;13.63;;
29712;SDS011;16623;53.632;10.016;2022-12-18T08:43:28;20.52;;;12.02;;
29712;SDS011;16623;53.632;10.016;2022-12-18T08:46:13;27.48;;;13.55;;
29712;SDS011;16623;53.632;10.016;2022-12-18T08:48:45;30.42;;;14.32;;
29712;SDS011;16623;53.632;10.016;2022-12-18T08:51:11;21.92;;;9.90;;
29712;SDS011;16623;53.632;10.016;2022-12-18T08:53:37;26.35;;;13.57;;
29712;SDS011;16623;53.632;10.016;2022-12-18T08:56:03;27.60;;;13.40;;
29712;SDS011;16623;53.632;10.016;2022-12-18T08:58:29;24.95;;;13.10;;
29712;SDS011;16623;53.632;10.016;2022-12-18T09:01:02;18.30;;;10.95;;
29712;SDS011;16623;53.632;10.016;2022-12-18T09:03:28;23.43;;;12.40;;
29712;SDS011;16623;53.632;10.016;2022-12-18T09:05:54;23.80;;;12.25;;
29712;SDS011;16623;53.632;10.016;2022-12-18T09:08:19;26.77;;;12.93;;
29712;SDS011;16623;53.632;10.016;2022-12-18T09:10:45;24.85;;;13.23;;
29712;SDS011;16623;53.632;10.016;2022-12-18T09:13:13;29.73;;;14.98;;
29712;SDS011;16623;53.632;10.016;2022-12-18T09:15:41;18.23;;;10.32;;
29712;SDS011;16623;53.632;10.016;2022-12-18T09:18:07;30.30;;;14.27;;
29712;SDS011;16623;53.632;10.016;2022-12-18T09:20:34;25.90;;;13.10;;
29712;SDS011;16623;53.632;10.016;2022-12-18T09:23:00;26.63;;;12.68;;
29712;SDS011;16623;53.632;10.016;2022-12-18T09:25:25;23.13;;;12.20;;
29712;SDS011;16623;53.632;10.016;2022-12-18T09:27:58;29.20;;;11.57;;
29712;SDS011;16623;53.632;10.016;2022-12-18T09:30:25;27.75;;;13.15;;
29712;SDS011;16623;53.632;10.016;2022-12-18T09:32:51;24.38;;;12.90;;
29712;SDS011;16623;53.632;10.016;2022-12-18T09:35:16;27.73;;;12.05;;
29712;SDS011;16623;53.632;10.016;2022-12-18T09:37:42;26.15;;;13.55;;
29712;SDS011;16623;53.632;10.016;2022-12-18T09:40:18;22.15;;;11.77;;
29712;SDS011;16623;53.632;10.016;2022-12-18T09:42:55;26.77;;;12.65;;
29712;SDS011;16623;53.632;10.016;2022-12-18T09:45:25;27.13;;;12.30;;
29712;SDS011;16623;53.632;10.016;2022-12-18T09:47:51;30.02;;;13.10;;
29712;SDS011;16623;53.632;10.016;2022-12-18T09:50:24;21.77;;;10.77;;
29712;SDS011;16623;53.632;10.016;2022-12-18T09:52:59;28.20;;;12.30;;
29712;SDS011;16623;53.632;10.016;2022-12-18T09:55:36;27.25;;;12.70;;
29712;SDS011;16623;53.632;10.016;2022-12-18T10:00:42;31.45;;;13.18;;
29712;SDS011;16623;53.632;10.016;2022-12-18T10:03:12;22.33;;;11.07;;
29712;SDS011;16623;53.632;10.016;2022-12-18T10:05:41;24.75;;;12.45;;
29712;SDS011;16623;53.632;10.016;2022-12-18T10:08:19;22.35;;;12.52;;
29712;SDS011;16623;53.632;10.016;2022-12-18T10:11:01;27.02;;;11.57;;
29712;SDS011;16623;53.632;10.016;2022-12-18T10:21:32;24.30;;;12.38;;
29712;SDS011;16623;53.632;10.016;2022-12-18T10:24:19;26.90;;;12.40;;
29712;SDS011;16623;53.632;10.016;2022-12-18T10:26:52;26.35;;;13.43;;
29712;SDS011;16623;53.632;10.016;2022-12-18T10:29:21;22.02;;;12.55;;
29712;SDS011;16623;53.632;10.016;2022-12-18T10:31:46;24.17;;;11.10;;
29712;SDS011;16623;53.632;10.016;2022-12-18T10:34:13;25.05;;;11.43;;
29712;SDS011;16623;53.632;10.016;2022-12-18T10:36:39;23.35;;;12.25;;
29712;SDS011;16623;53.632;10.016;2022-12-18T10:39:18;22.90;;;12.48;;
29712;SDS011;16623;53.632;10.016;2022-12-18T10:41:47;23.67;;;12.85;;
29712;SDS011;16623;53.632;10.016;2022-12-18T10:44:20;31.20;;;13.38;;
29712;SDS011;16623;53.632;10.016;2022-12-18T10:46:51;21.55;;;12.05;;
29712;SDS011;16623;53.632;10.016;2022-12-18T10:49:27;17.77;;;8.90;;
29712;SDS011;16623;53.632;10.016;2022-12-18T10:54:58;29.73;;;13.75;;
29712;SDS011;16623;53.632;10.016;2022-12-18T11:02:52;26.23;;;12.15;;
29712;SDS011;16623;53.632;10.016;2022-12-18T11:05:34;24.65;;;11.98;;
29712;SDS011;16623;53.632;10.016;2022-12-18T11:08:02;23.40;;;12.25;;
29712;SDS011;16623;53.632;10.016;2022-12-18T11:10:37;25.50;;;11.73;;
29712;SDS011;16623;53.632;10.016;2022-12-18T11:13:18;24.75;;;13.40;;
29712;SDS011;16623;53.632;10.016;2022-12-18T11:15:47;23.02;;;12.88;;
29712;SDS011;16623;53.632;10.016;2022-12-18T11:20:41;22.05;;;11.80;;
29712;SDS011;16623;53.632;10.016;2022-12-18T11:23:11;19.92;;;10.38;;
29712;SDS011;16623;53.632;10.016;2022-12-18T11:25:38;22.13;;;11.57;;
29712;SDS011;16623;53.632;10.016;2022-12-18T11:28:50;25.83;;;12.35;;
29712;SDS011;16623;53.632;10.016;2022-12-18T11:31:11;23.45;;;12.27;;
29712;SDS011;16623;53.632;10.016;2022-12-18T11:33:44;24.15;;;12.00;;
29712;SDS011;16623;53.632;10.016;2022-12-18T11:36:14;18.95;;;11.27;;
29712;SDS011;16623;53.632;10.016;2022-12-18T11:38:40;20.83;;;12.18;;
29712;SDS011;16623;53.632;10.016;2022-12-18T11:44:13;21.83;;;12.40;;
29712;SDS011;16623;53.632;10.016;2022-12-18T11:46:45;19.85;;;11.05;;
29712;SDS011;16623;53.632;10.016;2022-12-18T11:49:33;25.88;;;12.80;;
29712;SDS011;16623;53.632;10.016;2022-12-18T11:54:43;22.08;;;10.80;;
29712;SDS011;16623;53.632;10.016;2022-12-18T12:11:13;21.95;;;11.70;;
29712;SDS011;16623;53.632;10.016;2022-12-18T12:13:43;22.33;;;11.88;;
29712;SDS011;16623;53.632;10.016;2022-12-18T12:19:15;26.95;;;12.82;;
29712;SDS011;16623;53.632;10.016;2022-12-18T12:22:20;22.02;;;11.38;;
29712;SDS011;16623;53.632;10.016;2022-12-18T12:27:56;21.77;;;12.50;;
29712;SDS011;16623;53.632;10.016;2022-12-18T12:33:29;26.20;;;12.33;;
29712;SDS011;16623;53.632;10.016;2022-12-18T12:36:16;22.40;;;11.40;;
29712;SDS011;16623;53.632;10.016;2022-12-18T12:39:01;24.50;;;11.57;;
29712;SDS011;16623;53.632;10.016;2022-12-18T12:41:33;20.33;;;10.27;;
29712;SDS011;16623;53.632;10.016;2022-12-18T12:44:23;26.52;;;12.85;;
29712;SDS011;16623;53.632;10.016;2022-12-18T12:46:52;19.38;;;10.20;;
29712;SDS011;16623;53.632;10.016;2022-12-18T12:49:22;23.38;;;10.50;;
29712;SDS011;16623;53.632;10.016;2022-12-18T12:52:06;20.13;;;11.80;;
29712;SDS011;16623;53.632;10.016;2022-12-18T12:54:37;27.30;;;12.13;;
29712;SDS011;16623;53.632;10.016;2022-12-18T12:57:14;25.88;;;11.15;;
29712;SDS011;16623;53.632;10.016;2022-12-18T13:02:32;27.00;;;11.85;;
29712;SDS011;16623;53.632;10.016;2022-12-18T13:05:24;23.55;;;11.75;;
29712;SDS011;16623;53.632;10.016;2022-12-18T13:10:40;22.98;;;11.50;;
29712;SDS011;16623;53.632;10.016;2022-12-18T13:13:08;22.20;;;11.55;;
29712;SDS011;16623;53.632;10.016;2022-12-18T13:15:47;25.35;;;11.95;;
29712;SDS011;16623;53.632;10.016;2022-12-18T13:18:21;24.23;;;11.50;;
29712;SDS011;16623;53.632;10.016;2022-12-18T13:21:02;27.73;;;12.43;;
29712;SDS011;16623;53.632;10.016;2022-12-18T13:23:40;21.92;;;11.63;;
29712;SDS011;16623;53.632;10.016;2022-12-18T13:31:57;27.25;;;13.13;;
29712;SDS011;16623;53.632;10.016;2022-12-18T13:34:14;32.42;;;11.90;;
29712;SDS011;16623;53.632;10.016;2022-12-18T13:36:48;25.08;;;12.35;;
29712;SDS011;16623;53.632;10.016;2022-12-18T13:41:42;29.23;;;13.38;;
29712;SDS011;16623;53.632;10.016;2022-12-18T13:44:24;32.95;;;12.73;;
29712;SDS011;16623;53.632;10.016;2022-12-18T13:46:55;31.98;;;12.93;;
29712;SDS011;16623;53.632;10.016;2022-12-18T13:49:30;31.98;;;14.45;;
29712;SDS011;16623;53.632;10.016;2022-12-18T13:52:18;33.08;;;13.35;;
29712;SDS011;16623;53.632;10.016;2022-12-18T13:54:47;28.27;;;13.70;;
29712;SDS011;16623;53.632;10.016;2022-12-18T13:57:32;31.70;;;15.50;;
29712;SDS011;16623;53.632;10.016;2022-12-18T14:02:46;31.45;;;14.60;;
29712;SDS011;16623;53.632;10.016;2022-12-18T14:05:25;31.98;;;13.55;;
29712;SDS011;16623;53.632;10.016;2022-12-18T14:07:53;33.72;;;15.02;;
29712;SDS011;16623;53.632;10.016;2022-12-18T14:10:20;37.65;;;15.32;;
29712;SDS011;16623;53.632;10.016;2022-12-18T14:12:47;30.95;;;14.75;;
29712;SDS011;16623;53.632;10.016;2022-12-18T14:17:57;33.33;;;15.75;;
29712;SDS011;16623;53.632;10.016;2022-12-18T14:20:25;30.45;;;14.52;;
29712;SDS011;16623;53.632;10.016;2022-12-18T14:22:53;30.17;;;15.05;;
29712;SDS011;16623;53.632;10.016;2022-12-18T14:25:22;35.67;;;14.43;;
29712;SDS011;16623;53.632;10.016;2022-12-18T14:27:53;37.20;;;15.65;;
29712;SDS011;16623;53.632;10.016;2022-12-18T14:30:32;38.70;;;16.30;;
29712;SDS011;16623;53.632;10.016;2022-12-18T14:35:28;40.75;;;15.90;;
29712;SDS011;16623;53.632;10.016;2022-12-18T14:37:53;36.67;;;15.73;;
29712;SDS011;16623;53.632;10.016;2022-12-18T14:40:33;32.00;;;13.40;;
29712;SDS011;16623;53.632;10.016;2022-12-18T14:42:58;42.28;;;16.35;;
29712;SDS011;16623;53.632;10.016;2022-12-18T14:45:36;45.70;;;16.25;;
29712;SDS011;16623;53.632;10.016;2022-12-18T14:48:07;44.63;;;17.25;;
29712;SDS011;16623;53.632;10.016;2022-12-18T14:50:37;39.25;;;16.42;;
29712;SDS011;16623;53.632;10.016;2022-12-18T14:53:03;38.88;;;16.55;;
29712;SDS011;16623;53.632;10.016;2022-12-18T14:55:28;43.88;;;17.80;;
29712;SDS011;16623;53.632;10.016;2022-12-18T14:57:54;42.92;;;18.45;;
29712;SDS011;16623;53.632;10.016;2022-12-18T15:00:22;36.28;;;16.65;;
29712;SDS011;16623;53.632;10.016;2022-12-18T15:02:50;42.03;;;17.48;;
29712;SDS011;16623;53.632;10.016;2022-12-18T15:05:20;41.05;;;18.17;;
29712;SDS011;16623;53.632;10.016;2022-12-18T15:07:56;40.17;;;17.50;;
29712;SDS011;16623;53.632;10.016;2022-12-18T15:10:27;45.10;;;17.10;;
29712;SDS011;16623;53.632;10.016;2022-12-18T15:18:02;47.20;;;19.48;;
29712;SDS011;16623;53.632;10.016;2022-12-18T15:20:31;43.30;;;19.08;;
29712;SDS011;16623;53.632;10.016;2022-12-18T15:23:04;43.92;;;17.42;;
29712;SDS011;16623;53.632;10.016;2022-12-18T15:25:32;47.95;;;19.83;;
29712;SDS011;16623;53.632;10.016;2022-12-18T15:28:04;44.15;;;19.27;;
29712;SDS011;16623;53.632;10.016;2022-12-18T15:33:34;43.85;;;17.30;;
29712;SDS011;16623;53.632;10.016;2022-12-18T15:36:09;40.30;;;16.33;;
29712;SDS011;16623;53.632;10.016;2022-12-18T15:38:36;43.33;;;18.65;;
29712;SDS011;16623;53.632;10.016;2022-12-18T15:41:02;40.08;;;16.33;;
29712;SDS011;16623;53.632;10.016;2022-12-18T15:43:27;40.85;;;18.45;;
29712;SDS011;16623;53.632;10.016;2022-12-18T15:49:10;44.08;;;17.38;;
29712;SDS011;16623;53.632;10.016;2022-12-18T15:51:29;44.72;;;17.73;;
29712;SDS011;16623;53.632;10.016;2022-12-18T15:54:01;37.05;;;16.38;;
29712;SDS011;16623;53.632;10.016;2022-12-18T15:56:30;44.47;;;19.42;;
29712;SDS011;16623;53.632;10.016;2022-12-18T15:59:16;45.35;;;18.23;;
29712;SDS011;16623;53.632;10.016;2022-12-18T16:01:43;39.22;;;17.40;;
29712;SDS011;16623;53.632;10.016;2022-12-18T16:04:12;53.35;;;19.10;;
29712;SDS011;16623;53.632;10.016;2022-12-18T16:06:39;38.08;;;17.40;;